createdAt,value
2022-12-10T00:00:40.368Z,92.43
2022-12-10T00:04:47.803Z,92.46
2022-12-10T00:08:51.811Z,92.57
2022-12-10T00:12:53.784Z,92.50
2022-12-10T00:16:55.790Z,92.63
2022-12-10T00:20:57.858Z,92.03
2022-12-10T00:24:59.982Z,90.81
2022-12-10T00:29:04.299Z,91.17
2022-12-10T00:33:06.391Z,91.54
2022-12-10T00:37:08.434Z,90.51
2022-12-10T00:41:11.883Z,90.71
2022-12-10T00:45:13.867Z,91.46
2022-12-10T00:49:15.922Z,90.61
2022-12-10T00:53:17.924Z,90.50
2022-12-10T00:57:19.931Z,90.41
2022-12-10T01:01:26.189Z,91.31
2022-12-10T01:05:28.215Z,90.80
2022-12-10T01:09:31.391Z,91.07
2022-12-10T01:13:33.492Z,90.50
2022-12-10T01:17:35.581Z,89.77
2022-12-10T01:21:38.032Z,89.35
2022-12-10T01:25:40.021Z,90.06
2022-12-10T01:29:42.968Z,89.93
2022-12-10T01:33:46.148Z,88.98
2022-12-10T01:37:48.212Z,89.03
2022-12-10T01:41:51.984Z,88.11
2022-12-10T01:45:54.104Z,89.07
2022-12-10T01:49:58.454Z,89.21
2022-12-10T01:54:01.338Z,87.45
2022-12-10T01:58:03.644Z,87.76
2022-12-10T02:02:30.415Z,88.63
2022-12-10T02:06:43.312Z,88.85
2022-12-10T02:11:20.733Z,88.79
2022-12-10T02:15:31.398Z,88.30
2022-12-10T02:20:02.903Z,86.91
2022-12-10T02:24:12.441Z,86.86
2022-12-10T02:28:38.125Z,86.55
2022-12-10T02:32:45.383Z,86.99
2022-12-10T02:36:53.177Z,86.74
2022-12-10T02:41:02.425Z,87.02
2022-12-10T02:45:06.235Z,87.00
2022-12-10T02:49:12.680Z,86.96
2022-12-10T02:53:14.895Z,86.63
2022-12-10T02:57:36.322Z,86.17
2022-12-10T03:01:56.149Z,86.59
2022-12-10T03:06:31.179Z,86.00
2022-12-10T03:11:06.619Z,85.46
2022-12-10T03:15:11.592Z,85.93
2022-12-10T03:19:19.861Z,86.04
2022-12-10T03:23:22.441Z,86.44
2022-12-10T03:27:25.117Z,86.42
2022-12-10T03:31:27.538Z,86.38
2022-12-10T03:35:30.082Z,86.77
2022-12-10T03:39:33.228Z,86.34
2022-12-10T03:43:35.336Z,87.17
2022-12-10T03:47:37.411Z,87.60
2022-12-10T03:51:39.397Z,87.89
2022-12-10T03:55:41.372Z,87.83
2022-12-10T03:59:43.392Z,86.87
2022-12-10T04:03:45.670Z,87.34
2022-12-10T04:07:48.027Z,86.78
2022-12-10T04:11:50.082Z,86.47
2022-12-10T04:16:10.841Z,87.08
2022-12-10T04:20:31.169Z,86.58
2022-12-10T04:24:54.017Z,86.56
2022-12-10T04:28:56.046Z,86.71
2022-12-10T04:32:58.177Z,86.77
2022-12-10T04:37:01.507Z,86.63
2022-12-10T04:41:03.507Z,86.90
2022-12-10T04:45:06.131Z,86.45
2022-12-10T04:49:08.918Z,87.42
2022-12-10T04:53:10.923Z,87.14
2022-12-10T04:57:12.995Z,86.88
2022-12-10T05:01:15.303Z,86.03
2022-12-10T05:05:17.446Z,86.07
2022-12-10T05:09:19.562Z,86.55
2022-12-10T05:13:21.780Z,87.05
2022-12-10T05:17:23.817Z,87.25
2022-12-10T05:21:46.439Z,86.87
2022-12-10T05:25:54.083Z,87.58
2022-12-10T05:29:56.143Z,87.34
2022-12-10T05:33:59.017Z,87.98
2022-12-10T05:38:01.124Z,87.17
2022-12-10T05:42:03.268Z,86.29
2022-12-10T05:46:07.784Z,86.42
2022-12-10T05:50:10.156Z,86.94
2022-12-10T05:54:12.535Z,86.67
2022-12-10T05:58:15.077Z,88.39
2022-12-10T06:02:17.139Z,87.43
2022-12-10T06:06:30.286Z,87.64
2022-12-10T06:10:35.824Z,87.10
2022-12-10T06:14:37.828Z,87.64
2022-12-10T06:18:40.729Z,87.38
2022-12-10T06:22:42.753Z,87.00
2022-12-10T06:26:44.762Z,86.91
2022-12-10T06:30:46.831Z,87.35
2022-12-10T06:34:48.854Z,87.74
2022-12-10T06:38:51.076Z,88.19
2022-12-10T06:42:53.489Z,88.06
2022-12-10T06:46:55.525Z,88.65
2022-12-10T06:50:57.574Z,89.11
2022-12-10T06:54:59.642Z,89.89
2022-12-10T06:59:05.492Z,90.37
2022-12-10T07:03:07.498Z,90.25
2022-12-10T07:07:09.944Z,90.62
2022-12-10T07:11:14.659Z,91.15
2022-12-10T07:15:16.868Z,91.70
2022-12-10T07:19:19.024Z,92.39
2022-12-10T07:23:21.571Z,92.32
2022-12-10T07:27:23.582Z,92.76
2022-12-10T07:31:26.542Z,92.68
2022-12-10T07:35:28.700Z,93.00
2022-12-10T07:39:30.786Z,93.29
2022-12-10T07:43:37.687Z,92.74
2022-12-10T07:47:42.845Z,92.48
2022-12-10T07:51:49.753Z,92.51
2022-12-10T07:55:51.798Z,92.44
2022-12-10T07:59:53.763Z,92.74
2022-12-10T08:03:59.931Z,92.64
2022-12-10T08:08:06.625Z,92.16
2022-12-10T08:12:09.825Z,92.11
2022-12-10T08:16:20.442Z,91.45
2022-12-10T08:20:23.549Z,91.31
2022-12-10T08:24:25.607Z,91.35
2022-12-10T08:28:27.583Z,91.25
2022-12-10T08:32:29.533Z,91.16
2022-12-10T08:36:31.682Z,91.17
2022-12-10T08:40:33.884Z,96.83
2022-12-10T08:44:36.529Z,92.52
2022-12-10T08:48:39.263Z,88.12
2022-12-10T08:52:41.362Z,88.20
2022-12-10T08:56:43.365Z,87.71
2022-12-10T09:00:45.892Z,86.97
2022-12-10T09:04:50.273Z,87.86
2022-12-10T09:08:52.713Z,88.42
2022-12-10T09:12:59.901Z,88.11
2022-12-10T09:17:05.678Z,87.73
2022-12-10T09:21:17.265Z,88.26
2022-12-10T09:25:22.194Z,89.19
2022-12-10T09:29:24.231Z,88.20
2022-12-10T09:33:27.509Z,87.93
2022-12-10T09:37:29.543Z,87.82
2022-12-10T09:41:44.563Z,88.14
2022-12-10T09:46:28.075Z,88.00
2022-12-10T09:50:47.335Z,88.44
2022-12-10T09:54:59.913Z,88.69
2022-12-10T09:59:17.797Z,88.25
2022-12-10T10:03:19.798Z,88.05
2022-12-10T10:07:25.404Z,87.39
2022-12-10T10:11:33.478Z,86.87
2022-12-10T10:15:39.110Z,87.77
2022-12-10T10:19:42.201Z,86.89
2022-12-10T10:23:45.937Z,85.76
2022-12-10T10:27:48.005Z,86.79
2022-12-10T10:32:14.480Z,87.16
2022-12-10T10:36:16.488Z,86.77
2022-12-10T10:40:40.266Z,86.41
2022-12-10T10:44:42.810Z,86.03
2022-12-10T10:48:45.199Z,87.36
2022-12-10T10:52:47.200Z,87.07
2022-12-10T10:56:49.331Z,86.14
2022-12-10T11:00:59.256Z,86.41
2022-12-10T11:05:07.780Z,85.50
2022-12-10T11:09:20.849Z,84.39
2022-12-10T11:13:28.074Z,85.13
2022-12-10T11:17:30.165Z,85.46
2022-12-10T11:21:34.169Z,84.55
2022-12-10T11:26:04.321Z,83.82
2022-12-10T11:30:12.192Z,82.80
2022-12-10T11:34:45.487Z,81.88
2022-12-10T11:39:29.739Z,80.01
2022-12-10T11:43:39.603Z,81.19
2022-12-10T11:48:05.852Z,79.69
2022-12-10T11:52:27.039Z,79.83
2022-12-10T11:56:35.838Z,79.10
2022-12-10T12:01:02.956Z,77.34
2022-12-10T12:05:35.447Z,76.64
2022-12-10T12:09:54.363Z,77.04
2022-12-10T12:14:13.231Z,78.29
2022-12-10T12:18:28.829Z,79.15
2022-12-10T12:22:37.161Z,78.24
2022-12-10T12:26:47.129Z,78.37
2022-12-10T12:30:58.511Z,77.34
2022-12-10T12:35:02.848Z,76.03
2022-12-10T12:39:35.049Z,77.38
2022-12-10T12:43:37.021Z,76.44
2022-12-10T12:48:01.207Z,76.42
2022-12-10T12:52:21.367Z,76.22
2022-12-10T12:56:53.696Z,77.02
2022-12-10T13:01:01.768Z,77.26
2022-12-10T13:05:04.606Z,76.85
2022-12-10T13:09:12.756Z,76.74
2022-12-10T13:13:25.450Z,77.29
2022-12-10T13:17:36.587Z,78.33
2022-12-10T13:21:56.948Z,79.13
2022-12-10T13:26:00.636Z,77.69
2022-12-10T13:30:27.038Z,78.45
2022-12-10T13:34:37.941Z,79.16
2022-12-10T13:38:56.992Z,78.05
2022-12-10T13:43:56.373Z,77.03
2022-12-10T13:48:10.853Z,77.61
2022-12-10T13:52:26.081Z,77.58
2022-12-10T13:56:36.667Z,77.15
2022-12-10T14:01:16.883Z,77.05
2022-12-10T14:05:41.281Z,76.63
2022-12-10T14:09:50.889Z,77.69
2022-12-10T14:13:58.843Z,77.84
2022-12-10T14:18:02.581Z,77.61
2022-12-10T14:22:07.777Z,77.84
2022-12-10T14:26:16.782Z,77.03
2022-12-10T14:30:27.532Z,76.32
2022-12-10T14:34:30.246Z,76.34
2022-12-10T14:38:35.217Z,76.39
2022-12-10T14:42:40.490Z,76.89
2022-12-10T14:46:43.328Z,77.69
2022-12-10T14:50:46.860Z,76.41
2022-12-10T14:54:49.466Z,75.99
2022-12-10T14:59:02.707Z,76.22
2022-12-10T15:03:11.054Z,76.82
2022-12-10T15:07:21.604Z,78.11
2022-12-10T15:11:26.118Z,78.22
2022-12-10T15:15:40.383Z,78.86
2022-12-10T15:19:42.422Z,78.23
2022-12-10T15:23:46.274Z,78.18
2022-12-10T15:27:58.525Z,77.70
2022-12-10T15:32:06.165Z,77.35
2022-12-10T15:36:18.732Z,77.01
2022-12-10T15:40:28.725Z,76.81
2022-12-10T15:44:30.750Z,75.79
2022-12-10T15:48:32.868Z,75.57
2022-12-10T15:52:35.662Z,74.98
2022-12-10T15:56:37.628Z,73.96
2022-12-10T16:00:44.529Z,74.10
2022-12-10T16:04:46.796Z,73.45
2022-12-10T16:08:48.804Z,72.89
2022-12-10T16:13:01.731Z,74.31
2022-12-10T16:17:03.783Z,75.17
2022-12-10T16:21:07.714Z,75.47
2022-12-10T16:25:09.853Z,75.96
2022-12-10T16:29:11.860Z,76.46
2022-12-10T16:33:14.190Z,76.90
2022-12-10T16:37:16.185Z,77.29
2022-12-10T16:41:22.715Z,77.67
2022-12-10T16:45:28.106Z,78.43
2022-12-10T16:49:30.095Z,78.64
2022-12-10T16:53:36.821Z,78.76
2022-12-10T16:57:41.191Z,78.75
2022-12-10T17:01:43.258Z,78.65
2022-12-10T17:05:46.365Z,78.76
2022-12-10T17:09:48.433Z,78.06
2022-12-10T17:13:51.451Z,78.52
2022-12-10T17:17:53.530Z,77.79
2022-12-10T17:21:55.684Z,77.23
2022-12-10T17:25:58.325Z,76.94
2022-12-10T17:30:00.428Z,77.85
2022-12-10T17:34:02.463Z,78.18
2022-12-10T17:38:04.507Z,78.45
2022-12-10T17:42:08.385Z,77.84
2022-12-10T17:46:12.752Z,77.90
2022-12-10T17:50:36.083Z,77.46
2022-12-10T17:54:38.132Z,78.12
2022-12-10T17:58:40.590Z,77.76
2022-12-10T18:02:42.744Z,77.24
2022-12-10T18:06:45.368Z,76.97
2022-12-10T18:10:47.354Z,76.79
2022-12-10T18:14:49.445Z,78.61
2022-12-10T18:18:51.636Z,78.72
2022-12-10T18:22:54.206Z,79.44
2022-12-10T18:26:57.834Z,79.40
2022-12-10T18:31:02.747Z,79.70
2022-12-10T18:35:05.631Z,80.09
2022-12-10T18:39:18.197Z,79.95
2022-12-10T18:43:20.203Z,79.94
2022-12-10T18:47:22.575Z,80.33
2022-12-10T18:51:25.155Z,80.95
2022-12-10T18:55:27.214Z,80.79
2022-12-10T18:59:29.678Z,81.15
2022-12-10T19:03:31.697Z,81.27
2022-12-10T19:07:34.151Z,82.07
2022-12-10T19:11:36.357Z,81.97
2022-12-10T19:15:42.664Z,81.08
2022-12-10T19:19:45.314Z,81.14
2022-12-10T19:23:47.562Z,81.30
2022-12-10T19:27:49.673Z,80.10
2022-12-10T19:31:52.493Z,80.34
2022-12-10T19:35:54.475Z,80.64
2022-12-10T19:39:56.465Z,80.13
2022-12-10T19:43:58.453Z,83.24
2022-12-10T19:48:00.981Z,84.03
2022-12-10T19:52:03.168Z,83.03
2022-12-10T19:56:32.544Z,81.98
2022-12-10T20:00:34.800Z,83.83
2022-12-10T20:04:36.821Z,83.32
2022-12-10T20:08:38.909Z,83.15
2022-12-10T20:12:40.897Z,82.63
2022-12-10T20:16:43.396Z,83.32
2022-12-10T20:20:45.364Z,82.90
2022-12-10T20:24:47.742Z,83.04
2022-12-10T20:28:50.627Z,83.01
2022-12-10T20:32:52.704Z,82.96
2022-12-10T20:36:54.826Z,82.62
2022-12-10T20:40:57.202Z,83.75
2022-12-10T20:44:59.271Z,84.01
2022-12-10T20:49:01.378Z,83.09
2022-12-10T20:53:03.662Z,82.44
2022-12-10T20:57:05.866Z,82.18
2022-12-10T21:01:08.117Z,83.13
2022-12-10T21:05:10.552Z,83.71
2022-12-10T21:09:13.727Z,84.29
2022-12-10T21:13:15.788Z,83.78
2022-12-10T21:17:17.932Z,83.19
2022-12-10T21:21:21.955Z,83.13
2022-12-10T21:25:24.155Z,83.98
2022-12-10T21:29:26.251Z,84.40
2022-12-10T21:33:28.406Z,84.00
2022-12-10T21:37:30.431Z,83.31
2022-12-10T21:41:50.780Z,82.80
2022-12-10T21:45:55.350Z,83.16
2022-12-10T21:49:57.435Z,85.56
2022-12-10T21:53:59.938Z,84.35
2022-12-10T21:58:03.019Z,83.50
2022-12-10T22:02:05.150Z,82.75
2022-12-10T22:06:08.612Z,83.05
2022-12-10T22:10:12.879Z,82.45
2022-12-10T22:14:14.992Z,81.61
2022-12-10T22:18:17.287Z,81.13
2022-12-10T22:22:19.670Z,81.62
2022-12-10T22:26:22.833Z,83.14
2022-12-10T22:30:25.251Z,83.12
2022-12-10T22:34:27.692Z,83.77
2022-12-10T22:38:29.956Z,83.62
2022-12-10T22:42:38.255Z,83.44
2022-12-10T22:46:40.292Z,83.03
2022-12-10T22:50:42.324Z,82.39
2022-12-10T22:54:44.408Z,83.09
2022-12-10T22:58:46.495Z,84.02
2022-12-10T23:02:50.297Z,84.84
2022-12-10T23:06:52.331Z,86.20
2022-12-10T23:10:54.355Z,87.02
2022-12-10T23:14:59.544Z,87.39
2022-12-10T23:19:01.545Z,87.79
2022-12-10T23:23:03.800Z,88.77
2022-12-10T23:27:05.973Z,88.55
2022-12-10T23:31:08.531Z,89.07
2022-12-10T23:35:11.393Z,88.80
2022-12-10T23:39:13.571Z,88.81
2022-12-10T23:43:15.596Z,89.23
2022-12-10T23:47:18.424Z,88.96
2022-12-10T23:51:20.785Z,89.56
2022-12-10T23:55:22.840Z,89.29
2022-12-10T23:59:24.900Z,89.64
